sensor_id;sensor_type;location;lat;lon;timestamp;P1;durP1;ratioP1;P2;durP2;ratioP2
20888;SDS011;10604;51.976;7.594;2023-05-19T00:00:50;7.82;;;4.60;;
20888;SDS011;10604;51.976;7.594;2023-05-19T00:03:16;7.87;;;4.80;;
20888;SDS011;10604;51.976;7.594;2023-05-19T00:05:45;7.33;;;4.70;;
20888;SDS011;10604;51.976;7.594;2023-05-19T00:08:12;5.35;;;4.20;;
20888;SDS011;10604;51.976;7.594;2023-05-19T00:10:41;9.63;;;5.13;;
20888;SDS011;10604;51.976;7.594;2023-05-19T00:13:07;9.03;;;5.03;;
20888;SDS011;10604;51.976;7.594;2023-05-19T00:15:32;8.38;;;4.80;;
20888;SDS011;10604;51.976;7.594;2023-05-19T00:17:58;9.40;;;4.80;;
20888;SDS011;10604;51.976;7.594;2023-05-19T00:20:23;8.33;;;4.70;;
20888;SDS011;10604;51.976;7.594;2023-05-19T00:22:48;7.35;;;5.00;;
20888;SDS011;10604;51.976;7.594;2023-05-19T00:25:15;7.22;;;5.15;;
20888;SDS011;10604;51.976;7.594;2023-05-19T00:27:40;9.60;;;5.27;;
20888;SDS011;10604;51.976;7.594;2023-05-19T00:30:06;7.00;;;4.90;;
20888;SDS011;10604;51.976;7.594;2023-05-19T00:32:31;8.07;;;5.20;;
20888;SDS011;10604;51.976;7.594;2023-05-19T00:34:58;7.63;;;5.18;;
20888;SDS011;10604;51.976;7.594;2023-05-19T00:37:23;9.20;;;5.60;;
20888;SDS011;10604;51.976;7.594;2023-05-19T00:39:49;6.57;;;5.10;;
20888;SDS011;10604;51.976;7.594;2023-05-19T00:42:14;8.83;;;5.33;;
20888;SDS011;10604;51.976;7.594;2023-05-19T00:44:40;8.95;;;5.45;;
20888;SDS011;10604;51.976;7.594;2023-05-19T00:47:06;7.33;;;5.40;;
20888;SDS011;10604;51.976;7.594;2023-05-19T00:49:34;7.82;;;5.32;;
20888;SDS011;10604;51.976;7.594;2023-05-19T00:52:00;8.93;;;5.53;;
20888;SDS011;10604;51.976;7.594;2023-05-19T00:54:26;9.02;;;5.68;;
20888;SDS011;10604;51.976;7.594;2023-05-19T00:56:55;8.57;;;5.45;;
20888;SDS011;10604;51.976;7.594;2023-05-19T00:59:22;8.55;;;5.47;;
20888;SDS011;10604;51.976;7.594;2023-05-19T01:01:47;9.77;;;5.70;;
20888;SDS011;10604;51.976;7.594;2023-05-19T01:04:19;8.23;;;6.00;;
20888;SDS011;10604;51.976;7.594;2023-05-19T01:06:49;7.75;;;5.50;;
20888;SDS011;10604;51.976;7.594;2023-05-19T01:09:19;7.47;;;5.95;;
20888;SDS011;10604;51.976;7.594;2023-05-19T01:11:46;8.90;;;5.93;;
20888;SDS011;10604;51.976;7.594;2023-05-19T01:14:11;8.53;;;5.80;;
20888;SDS011;10604;51.976;7.594;2023-05-19T01:16:41;8.10;;;5.75;;
20888;SDS011;10604;51.976;7.594;2023-05-19T01:30:47;9.85;;;6.10;;
20888;SDS011;10604;51.976;7.594;2023-05-19T01:33:18;10.68;;;6.47;;
20888;SDS011;10604;51.976;7.594;2023-05-19T01:35:46;9.55;;;6.35;;
20888;SDS011;10604;51.976;7.594;2023-05-19T01:38:13;8.32;;;6.40;;
20888;SDS011;10604;51.976;7.594;2023-05-19T01:40:41;9.02;;;6.07;;
20888;SDS011;10604;51.976;7.594;2023-05-19T01:43:08;6.70;;;5.88;;
20888;SDS011;10604;51.976;7.594;2023-05-19T01:45:36;8.10;;;6.28;;
20888;SDS011;10604;51.976;7.594;2023-05-19T01:48:02;8.50;;;6.20;;
20888;SDS011;10604;51.976;7.594;2023-05-19T01:50:29;9.63;;;6.40;;
20888;SDS011;10604;51.976;7.594;2023-05-19T01:52:55;9.20;;;5.90;;
20888;SDS011;10604;51.976;7.594;2023-05-19T01:55:21;7.65;;;6.53;;
20888;SDS011;10604;51.976;7.594;2023-05-19T02:00:18;9.73;;;6.70;;
20888;SDS011;10604;51.976;7.594;2023-05-19T02:03:15;9.38;;;6.30;;
20888;SDS011;10604;51.976;7.594;2023-05-19T02:08:36;8.40;;;6.83;;
20888;SDS011;10604;51.976;7.594;2023-05-19T02:11:26;13.48;;;7.18;;
20888;SDS011;10604;51.976;7.594;2023-05-19T02:13:57;10.10;;;7.30;;
20888;SDS011;10604;51.976;7.594;2023-05-19T02:16:27;9.65;;;6.70;;
20888;SDS011;10604;51.976;7.594;2023-05-19T02:18:53;12.32;;;6.90;;
20888;SDS011;10604;51.976;7.594;2023-05-19T02:21:20;12.43;;;7.25;;
20888;SDS011;10604;51.976;7.594;2023-05-19T02:23:46;9.63;;;6.50;;
20888;SDS011;10604;51.976;7.594;2023-05-19T02:26:12;10.38;;;7.05;;
20888;SDS011;10604;51.976;7.594;2023-05-19T02:28:37;9.17;;;6.90;;
20888;SDS011;10604;51.976;7.594;2023-05-19T02:31:02;10.10;;;6.90;;
20888;SDS011;10604;51.976;7.594;2023-05-19T02:33:32;9.63;;;7.13;;
20888;SDS011;10604;51.976;7.594;2023-05-19T02:35:58;10.57;;;6.90;;
20888;SDS011;10604;51.976;7.594;2023-05-19T02:38:23;9.60;;;6.85;;
20888;SDS011;10604;51.976;7.594;2023-05-19T02:40:50;11.70;;;7.10;;
20888;SDS011;10604;51.976;7.594;2023-05-19T02:43:16;9.90;;;6.77;;
20888;SDS011;10604;51.976;7.594;2023-05-19T02:45:42;10.40;;;6.80;;
20888;SDS011;10604;51.976;7.594;2023-05-19T02:48:07;9.50;;;7.07;;
20888;SDS011;10604;51.976;7.594;2023-05-19T02:50:32;10.70;;;7.10;;
20888;SDS011;10604;51.976;7.594;2023-05-19T02:52:58;11.07;;;7.03;;
20888;SDS011;10604;51.976;7.594;2023-05-19T02:55:23;10.23;;;7.20;;
20888;SDS011;10604;51.976;7.594;2023-05-19T02:57:48;10.05;;;7.22;;
20888;SDS011;10604;51.976;7.594;2023-05-19T03:00:14;11.83;;;7.37;;
20888;SDS011;10604;51.976;7.594;2023-05-19T03:02:39;11.18;;;7.30;;
20888;SDS011;10604;51.976;7.594;2023-05-19T03:05:11;9.50;;;6.40;;
20888;SDS011;10604;51.976;7.594;2023-05-19T03:07:38;9.88;;;7.15;;
20888;SDS011;10604;51.976;7.594;2023-05-19T03:10:03;8.77;;;7.20;;
20888;SDS011;10604;51.976;7.594;2023-05-19T03:12:30;8.93;;;7.30;;
20888;SDS011;10604;51.976;7.594;2023-05-19T03:14:57;10.18;;;7.38;;
20888;SDS011;10604;51.976;7.594;2023-05-19T03:17:23;10.00;;;7.82;;
20888;SDS011;10604;51.976;7.594;2023-05-19T03:19:48;9.20;;;7.40;;
20888;SDS011;10604;51.976;7.594;2023-05-19T03:22:15;11.10;;;8.07;;
20888;SDS011;10604;51.976;7.594;2023-05-19T03:24:40;9.43;;;8.10;;
20888;SDS011;10604;51.976;7.594;2023-05-19T03:27:06;12.83;;;8.20;;
20888;SDS011;10604;51.976;7.594;2023-05-19T03:29:31;9.17;;;7.40;;
20888;SDS011;10604;51.976;7.594;2023-05-19T03:31:56;11.25;;;7.85;;
20888;SDS011;10604;51.976;7.594;2023-05-19T03:34:22;9.87;;;8.00;;
20888;SDS011;10604;51.976;7.594;2023-05-19T03:36:47;10.77;;;8.10;;
20888;SDS011;10604;51.976;7.594;2023-05-19T03:39:23;9.57;;;7.60;;
20888;SDS011;10604;51.976;7.594;2023-05-19T03:41:48;9.27;;;7.75;;
20888;SDS011;10604;51.976;7.594;2023-05-19T03:44:14;10.57;;;8.60;;
20888;SDS011;10604;51.976;7.594;2023-05-19T03:46:39;12.30;;;7.93;;
20888;SDS011;10604;51.976;7.594;2023-05-19T03:49:05;12.07;;;8.00;;
20888;SDS011;10604;51.976;7.594;2023-05-19T03:51:30;9.90;;;8.00;;
20888;SDS011;10604;51.976;7.594;2023-05-19T03:53:55;8.87;;;7.50;;
20888;SDS011;10604;51.976;7.594;2023-05-19T03:56:21;8.68;;;7.72;;
20888;SDS011;10604;51.976;7.594;2023-05-19T03:58:48;11.05;;;8.05;;
20888;SDS011;10604;51.976;7.594;2023-05-19T04:01:14;9.07;;;7.70;;
20888;SDS011;10604;51.976;7.594;2023-05-19T04:03:39;11.30;;;7.88;;
20888;SDS011;10604;51.976;7.594;2023-05-19T04:06:05;10.17;;;7.80;;
20888;SDS011;10604;51.976;7.594;2023-05-19T04:08:31;11.68;;;8.13;;
20888;SDS011;10604;51.976;7.594;2023-05-19T04:10:56;11.23;;;8.03;;
20888;SDS011;10604;51.976;7.594;2023-05-19T04:13:22;11.70;;;7.88;;
20888;SDS011;10604;51.976;7.594;2023-05-19T04:15:47;11.10;;;8.03;;
20888;SDS011;10604;51.976;7.594;2023-05-19T04:18:12;10.87;;;8.13;;
20888;SDS011;10604;51.976;7.594;2023-05-19T04:20:38;9.17;;;8.00;;
20888;SDS011;10604;51.976;7.594;2023-05-19T04:23:03;10.47;;;7.77;;
20888;SDS011;10604;51.976;7.594;2023-05-19T04:25:29;12.98;;;8.63;;
20888;SDS011;10604;51.976;7.594;2023-05-19T04:28:00;11.57;;;8.00;;
20888;SDS011;10604;51.976;7.594;2023-05-19T04:30:27;10.53;;;8.13;;
20888;SDS011;10604;51.976;7.594;2023-05-19T04:32:53;11.17;;;8.17;;
20888;SDS011;10604;51.976;7.594;2023-05-19T04:35:19;9.87;;;8.30;;
20888;SDS011;10604;51.976;7.594;2023-05-19T04:37:44;9.90;;;7.95;;
20888;SDS011;10604;51.976;7.594;2023-05-19T04:40:10;10.03;;;8.23;;
20888;SDS011;10604;51.976;7.594;2023-05-19T04:42:39;9.82;;;7.88;;
20888;SDS011;10604;51.976;7.594;2023-05-19T04:45:06;10.88;;;8.00;;
20888;SDS011;10604;51.976;7.594;2023-05-19T04:47:33;10.55;;;7.65;;
20888;SDS011;10604;51.976;7.594;2023-05-19T04:50:02;9.00;;;7.57;;
20888;SDS011;10604;51.976;7.594;2023-05-19T04:52:31;9.75;;;7.70;;
20888;SDS011;10604;51.976;7.594;2023-05-19T04:54:57;12.43;;;8.10;;
20888;SDS011;10604;51.976;7.594;2023-05-19T04:57:22;9.20;;;7.30;;
20888;SDS011;10604;51.976;7.594;2023-05-19T04:59:48;10.50;;;7.80;;
20888;SDS011;10604;51.976;7.594;2023-05-19T05:02:19;9.33;;;7.40;;
20888;SDS011;10604;51.976;7.594;2023-05-19T05:04:45;9.15;;;7.13;;
20888;SDS011;10604;51.976;7.594;2023-05-19T05:07:10;12.93;;;7.50;;
20888;SDS011;10604;51.976;7.594;2023-05-19T05:09:36;11.03;;;7.10;;
20888;SDS011;10604;51.976;7.594;2023-05-19T05:12:01;10.88;;;6.88;;
20888;SDS011;10604;51.976;7.594;2023-05-19T05:14:27;10.15;;;7.07;;
20888;SDS011;10604;51.976;7.594;2023-05-19T05:16:53;11.07;;;6.77;;
20888;SDS011;10604;51.976;7.594;2023-05-19T05:19:19;8.57;;;6.43;;
20888;SDS011;10604;51.976;7.594;2023-05-19T05:21:46;9.85;;;6.28;;
20888;SDS011;10604;51.976;7.594;2023-05-19T05:24:11;8.03;;;5.50;;
20888;SDS011;10604;51.976;7.594;2023-05-19T05:26:37;11.35;;;5.88;;
20888;SDS011;10604;51.976;7.594;2023-05-19T05:29:03;9.37;;;5.80;;
20888;SDS011;10604;51.976;7.594;2023-05-19T05:31:28;7.03;;;5.25;;
20888;SDS011;10604;51.976;7.594;2023-05-19T05:33:54;7.03;;;5.43;;
20888;SDS011;10604;51.976;7.594;2023-05-19T05:36:19;9.30;;;5.63;;
20888;SDS011;10604;51.976;7.594;2023-05-19T05:38:45;9.43;;;5.13;;
20888;SDS011;10604;51.976;7.594;2023-05-19T05:41:14;10.80;;;5.30;;
20888;SDS011;10604;51.976;7.594;2023-05-19T05:43:39;7.90;;;5.28;;
20888;SDS011;10604;51.976;7.594;2023-05-19T05:46:05;8.20;;;5.03;;
20888;SDS011;10604;51.976;7.594;2023-05-19T05:48:30;7.82;;;4.95;;
20888;SDS011;10604;51.976;7.594;2023-05-19T05:50:56;8.90;;;5.03;;
20888;SDS011;10604;51.976;7.594;2023-05-19T05:53:23;7.18;;;4.55;;
20888;SDS011;10604;51.976;7.594;2023-05-19T05:55:50;6.23;;;4.60;;
20888;SDS011;10604;51.976;7.594;2023-05-19T05:58:17;8.82;;;4.60;;
20888;SDS011;10604;51.976;7.594;2023-05-19T06:00:42;6.50;;;4.47;;
20888;SDS011;10604;51.976;7.594;2023-05-19T06:03:08;6.57;;;4.07;;
20888;SDS011;10604;51.976;7.594;2023-05-19T06:05:35;8.38;;;4.38;;
20888;SDS011;10604;51.976;7.594;2023-05-19T06:08:00;8.23;;;4.18;;
20888;SDS011;10604;51.976;7.594;2023-05-19T06:10:26;9.53;;;4.30;;
20888;SDS011;10604;51.976;7.594;2023-05-19T06:12:52;5.43;;;3.65;;
20888;SDS011;10604;51.976;7.594;2023-05-19T06:15:21;8.00;;;4.03;;
20888;SDS011;10604;51.976;7.594;2023-05-19T06:17:59;7.03;;;3.90;;
20888;SDS011;10604;51.976;7.594;2023-05-19T06:20:24;6.95;;;3.58;;
20888;SDS011;10604;51.976;7.594;2023-05-19T06:22:50;8.30;;;3.95;;
20888;SDS011;10604;51.976;7.594;2023-05-19T06:25:20;6.57;;;3.60;;
20888;SDS011;10604;51.976;7.594;2023-05-19T06:27:49;8.37;;;4.00;;
20888;SDS011;10604;51.976;7.594;2023-05-19T06:30:14;6.45;;;3.53;;
20888;SDS011;10604;51.976;7.594;2023-05-19T06:32:41;6.87;;;3.67;;
20888;SDS011;10604;51.976;7.594;2023-05-19T06:35:07;10.35;;;3.88;;
20888;SDS011;10604;51.976;7.594;2023-05-19T06:37:32;7.47;;;3.63;;
20888;SDS011;10604;51.976;7.594;2023-05-19T06:39:57;7.73;;;3.60;;
20888;SDS011;10604;51.976;7.594;2023-05-19T06:42:23;7.55;;;3.50;;
20888;SDS011;10604;51.976;7.594;2023-05-19T06:44:49;7.35;;;3.65;;
20888;SDS011;10604;51.976;7.594;2023-05-19T06:47:18;7.82;;;3.50;;
20888;SDS011;10604;51.976;7.594;2023-05-19T06:49:43;6.78;;;3.28;;
20888;SDS011;10604;51.976;7.594;2023-05-19T06:52:14;7.05;;;3.40;;
20888;SDS011;10604;51.976;7.594;2023-05-19T06:54:40;8.35;;;3.38;;
20888;SDS011;10604;51.976;7.594;2023-05-19T06:57:08;6.88;;;3.60;;
20888;SDS011;10604;51.976;7.594;2023-05-19T06:59:34;6.60;;;3.30;;
20888;SDS011;10604;51.976;7.594;2023-05-19T07:02:01;9.02;;;3.20;;
20888;SDS011;10604;51.976;7.594;2023-05-19T07:04:28;6.10;;;3.00;;
20888;SDS011;10604;51.976;7.594;2023-05-19T07:06:54;6.63;;;2.88;;
20888;SDS011;10604;51.976;7.594;2023-05-19T07:09:22;5.82;;;3.17;;
20888;SDS011;10604;51.976;7.594;2023-05-19T07:11:49;8.17;;;3.13;;
20888;SDS011;10604;51.976;7.594;2023-05-19T07:14:17;6.40;;;3.10;;
20888;SDS011;10604;51.976;7.594;2023-05-19T07:16:43;7.15;;;3.10;;
20888;SDS011;10604;51.976;7.594;2023-05-19T07:19:09;9.50;;;3.30;;
20888;SDS011;10604;51.976;7.594;2023-05-19T07:21:34;6.87;;;2.93;;
20888;SDS011;10604;51.976;7.594;2023-05-19T07:24:07;6.97;;;3.15;;
20888;SDS011;10604;51.976;7.594;2023-05-19T07:26:32;6.82;;;3.30;;
20888;SDS011;10604;51.976;7.594;2023-05-19T07:28:57;7.83;;;3.00;;
20888;SDS011;10604;51.976;7.594;2023-05-19T07:31:23;8.00;;;3.37;;
20888;SDS011;10604;51.976;7.594;2023-05-19T07:33:48;7.23;;;3.23;;
20888;SDS011;10604;51.976;7.594;2023-05-19T07:36:13;10.40;;;3.28;;
20888;SDS011;10604;51.976;7.594;2023-05-19T07:38:39;8.23;;;3.10;;
20888;SDS011;10604;51.976;7.594;2023-05-19T07:41:05;5.97;;;2.88;;
20888;SDS011;10604;51.976;7.594;2023-05-19T07:43:31;6.47;;;2.83;;
20888;SDS011;10604;51.976;7.594;2023-05-19T07:45:57;6.90;;;2.60;;
20888;SDS011;10604;51.976;7.594;2023-05-19T07:48:22;5.90;;;2.90;;
20888;SDS011;10604;51.976;7.594;2023-05-19T07:50:54;5.07;;;2.83;;
20888;SDS011;10604;51.976;7.594;2023-05-19T07:53:20;6.53;;;2.60;;
20888;SDS011;10604;51.976;7.594;2023-05-19T07:55:46;5.53;;;2.80;;
20888;SDS011;10604;51.976;7.594;2023-05-19T07:58:12;5.45;;;2.72;;
20888;SDS011;10604;51.976;7.594;2023-05-19T08:00:38;7.05;;;2.70;;
20888;SDS011;10604;51.976;7.594;2023-05-19T08:03:05;5.30;;;2.40;;
20888;SDS011;10604;51.976;7.594;2023-05-19T08:05:32;6.93;;;2.58;;
20888;SDS011;10604;51.976;7.594;2023-05-19T08:07:58;6.50;;;2.60;;
20888;SDS011;10604;51.976;7.594;2023-05-19T08:10:24;5.67;;;2.67;;
20888;SDS011;10604;51.976;7.594;2023-05-19T08:12:49;7.47;;;2.87;;
20888;SDS011;10604;51.976;7.594;2023-05-19T08:15:15;7.40;;;2.50;;
20888;SDS011;10604;51.976;7.594;2023-05-19T08:17:40;6.93;;;2.70;;
20888;SDS011;10604;51.976;7.594;2023-05-19T08:20:06;6.37;;;2.53;;
20888;SDS011;10604;51.976;7.594;2023-05-19T08:22:33;5.32;;;2.53;;
20888;SDS011;10604;51.976;7.594;2023-05-19T08:24:59;6.30;;;2.10;;
20888;SDS011;10604;51.976;7.594;2023-05-19T08:27:25;7.20;;;2.22;;
20888;SDS011;10604;51.976;7.594;2023-05-19T08:29:50;5.78;;;2.20;;
20888;SDS011;10604;51.976;7.594;2023-05-19T08:32:16;5.33;;;2.40;;
20888;SDS011;10604;51.976;7.594;2023-05-19T08:34:41;4.80;;;1.90;;
20888;SDS011;10604;51.976;7.594;2023-05-19T08:37:07;5.33;;;2.30;;
20888;SDS011;10604;51.976;7.594;2023-05-19T08:39:33;7.17;;;2.50;;
20888;SDS011;10604;51.976;7.594;2023-05-19T08:41:58;3.42;;;2.00;;
20888;SDS011;10604;51.976;7.594;2023-05-19T08:44:25;4.38;;;1.85;;
20888;SDS011;10604;51.976;7.594;2023-05-19T08:46:51;5.03;;;2.17;;
20888;SDS011;10604;51.976;7.594;2023-05-19T08:49:21;6.45;;;2.30;;
20888;SDS011;10604;51.976;7.594;2023-05-19T08:54:49;6.00;;;2.20;;
20888;SDS011;10604;51.976;7.594;2023-05-19T08:57:19;3.97;;;1.88;;
20888;SDS011;10604;51.976;7.594;2023-05-19T08:59:45;6.28;;;2.08;;
20888;SDS011;10604;51.976;7.594;2023-05-19T09:02:12;5.22;;;2.05;;
20888;SDS011;10604;51.976;7.594;2023-05-19T09:04:38;7.07;;;2.10;;
20888;SDS011;10604;51.976;7.594;2023-05-19T09:07:04;6.07;;;2.28;;
20888;SDS011;10604;51.976;7.594;2023-05-19T09:09:30;6.70;;;2.20;;
20888;SDS011;10604;51.976;7.594;2023-05-19T09:11:55;5.43;;;2.17;;
20888;SDS011;10604;51.976;7.594;2023-05-19T09:14:20;5.10;;;2.10;;
20888;SDS011;10604;51.976;7.594;2023-05-19T09:16:53;7.82;;;2.20;;
20888;SDS011;10604;51.976;7.594;2023-05-19T09:19:18;5.32;;;2.00;;
20888;SDS011;10604;51.976;7.594;2023-05-19T09:21:47;4.88;;;2.08;;
20888;SDS011;10604;51.976;7.594;2023-05-19T09:24:23;4.70;;;2.40;;
20888;SDS011;10604;51.976;7.594;2023-05-19T09:26:49;8.23;;;2.33;;
20888;SDS011;10604;51.976;7.594;2023-05-19T09:29:15;6.83;;;2.00;;
20888;SDS011;10604;51.976;7.594;2023-05-19T09:34:16;4.10;;;1.70;;
20888;SDS011;10604;51.976;7.594;2023-05-19T09:36:42;5.03;;;2.30;;
20888;SDS011;10604;51.976;7.594;2023-05-19T09:39:13;6.20;;;2.10;;
20888;SDS011;10604;51.976;7.594;2023-05-19T09:41:42;5.57;;;2.10;;
20888;SDS011;10604;51.976;7.594;2023-05-19T09:44:41;4.32;;;2.03;;
20888;SDS011;10604;51.976;7.594;2023-05-19T09:46:59;7.03;;;2.10;;
20888;SDS011;10604;51.976;7.594;2023-05-19T09:49:25;4.22;;;1.90;;
20888;SDS011;10604;51.976;7.594;2023-05-19T09:52:01;6.57;;;2.25;;
20888;SDS011;10604;51.976;7.594;2023-05-19T09:54:28;4.87;;;1.90;;
20888;SDS011;10604;51.976;7.594;2023-05-19T09:56:59;4.50;;;2.38;;
20888;SDS011;10604;51.976;7.594;2023-05-19T09:59:26;4.25;;;2.13;;
20888;SDS011;10604;51.976;7.594;2023-05-19T10:01:53;4.22;;;2.20;;
20888;SDS011;10604;51.976;7.594;2023-05-19T10:04:21;3.50;;;2.40;;
20888;SDS011;10604;51.976;7.594;2023-05-19T10:06:48;5.82;;;3.20;;
20888;SDS011;10604;51.976;7.594;2023-05-19T10:09:17;8.13;;;5.30;;
20888;SDS011;10604;51.976;7.594;2023-05-19T10:11:52;5.60;;;2.63;;
20888;SDS011;10604;51.976;7.594;2023-05-19T10:14:22;7.00;;;2.13;;
20888;SDS011;10604;51.976;7.594;2023-05-19T10:16:49;4.82;;;2.00;;
20888;SDS011;10604;51.976;7.594;2023-05-19T10:19:22;3.95;;;1.90;;
20888;SDS011;10604;51.976;7.594;2023-05-19T10:21:49;7.07;;;2.03;;
20888;SDS011;10604;51.976;7.594;2023-05-19T10:24:19;5.90;;;2.05;;
20888;SDS011;10604;51.976;7.594;2023-05-19T10:26:48;3.90;;;1.77;;
20888;SDS011;10604;51.976;7.594;2023-05-19T10:29:29;4.78;;;2.00;;
20888;SDS011;10604;51.976;7.594;2023-05-19T10:32:00;5.47;;;2.03;;
20888;SDS011;10604;51.976;7.594;2023-05-19T10:40:15;5.00;;;1.80;;
20888;SDS011;10604;51.976;7.594;2023-05-19T10:42:52;5.97;;;2.13;;
20888;SDS011;10604;51.976;7.594;2023-05-19T10:45:20;4.03;;;1.80;;
20888;SDS011;10604;51.976;7.594;2023-05-19T10:47:51;4.72;;;1.98;;
20888;SDS011;10604;51.976;7.594;2023-05-19T10:50:18;4.35;;;1.90;;
20888;SDS011;10604;51.976;7.594;2023-05-19T10:52:51;3.75;;;1.98;;
20888;SDS011;10604;51.976;7.594;2023-05-19T10:58:12;4.22;;;2.10;;
20888;SDS011;10604;51.976;7.594;2023-05-19T11:00:37;4.77;;;1.90;;
20888;SDS011;10604;51.976;7.594;2023-05-19T11:03:16;4.43;;;1.90;;
20888;SDS011;10604;51.976;7.594;2023-05-19T11:05:50;4.57;;;2.00;;
20888;SDS011;10604;51.976;7.594;2023-05-19T11:08:17;4.20;;;1.83;;
20888;SDS011;10604;51.976;7.594;2023-05-19T11:10:56;5.67;;;2.10;;
20888;SDS011;10604;51.976;7.594;2023-05-19T11:13:41;5.68;;;2.10;;
20888;SDS011;10604;51.976;7.594;2023-05-19T11:16:10;4.80;;;2.50;;
20888;SDS011;10604;51.976;7.594;2023-05-19T11:18:36;5.97;;;2.40;;
20888;SDS011;10604;51.976;7.594;2023-05-19T11:21:02;5.38;;;2.03;;
20888;SDS011;10604;51.976;7.594;2023-05-19T11:23:27;5.73;;;2.30;;
20888;SDS011;10604;51.976;7.594;2023-05-19T11:25:57;5.63;;;2.00;;
20888;SDS011;10604;51.976;7.594;2023-05-19T11:28:26;6.63;;;2.30;;
20888;SDS011;10604;51.976;7.594;2023-05-19T11:30:57;4.72;;;2.13;;
20888;SDS011;10604;51.976;7.594;2023-05-19T11:35:56;5.68;;;2.00;;
20888;SDS011;10604;51.976;7.594;2023-05-19T11:38:22;5.65;;;2.00;;
20888;SDS011;10604;51.976;7.594;2023-05-19T11:40:48;5.15;;;2.10;;
20888;SDS011;10604;51.976;7.594;2023-05-19T11:43:17;5.18;;;1.80;;
20888;SDS011;10604;51.976;7.594;2023-05-19T11:45:43;3.93;;;2.00;;
20888;SDS011;10604;51.976;7.594;2023-05-19T11:48:12;5.30;;;2.08;;
20888;SDS011;10604;51.976;7.594;2023-05-19T11:50:39;4.32;;;1.90;;
20888;SDS011;10604;51.976;7.594;2023-05-19T11:53:07;5.75;;;1.85;;
20888;SDS011;10604;51.976;7.594;2023-05-19T11:55:43;4.57;;;2.13;;
20888;SDS011;10604;51.976;7.594;2023-05-19T11:58:10;6.38;;;2.00;;
20888;SDS011;10604;51.976;7.594;2023-05-19T12:00:36;5.40;;;1.90;;
20888;SDS011;10604;51.976;7.594;2023-05-19T12:03:11;3.63;;;1.88;;
20888;SDS011;10604;51.976;7.594;2023-05-19T12:05:37;3.95;;;1.90;;
20888;SDS011;10604;51.976;7.594;2023-05-19T12:08:08;5.75;;;2.22;;
20888;SDS011;10604;51.976;7.594;2023-05-19T12:10:34;6.63;;;2.23;;
20888;SDS011;10604;51.976;7.594;2023-05-19T12:13:00;4.22;;;2.30;;
20888;SDS011;10604;51.976;7.594;2023-05-19T12:15:26;6.80;;;2.60;;
20888;SDS011;10604;51.976;7.594;2023-05-19T12:20:20;4.00;;;2.20;;
20888;SDS011;10604;51.976;7.594;2023-05-19T12:22:47;4.28;;;2.10;;
20888;SDS011;10604;51.976;7.594;2023-05-19T12:25:14;6.72;;;2.05;;
20888;SDS011;10604;51.976;7.594;2023-05-19T12:27:41;5.25;;;2.10;;
20888;SDS011;10604;51.976;7.594;2023-05-19T12:30:09;5.20;;;2.47;;
20888;SDS011;10604;51.976;7.594;2023-05-19T12:32:36;5.03;;;2.30;;
20888;SDS011;10604;51.976;7.594;2023-05-19T12:35:02;3.33;;;2.10;;
20888;SDS011;10604;51.976;7.594;2023-05-19T12:37:29;3.65;;;2.30;;
20888;SDS011;10604;51.976;7.594;2023-05-19T12:39:55;3.75;;;2.10;;
20888;SDS011;10604;51.976;7.594;2023-05-19T12:42:21;4.57;;;1.80;;
20888;SDS011;10604;51.976;7.594;2023-05-19T12:44:48;3.72;;;2.00;;
20888;SDS011;10604;51.976;7.594;2023-05-19T12:47:16;3.95;;;2.08;;
20888;SDS011;10604;51.976;7.594;2023-05-19T12:49:53;4.28;;;2.20;;
20888;SDS011;10604;51.976;7.594;2023-05-19T12:52:29;4.18;;;2.10;;
20888;SDS011;10604;51.976;7.594;2023-05-19T12:55:02;3.40;;;2.08;;
20888;SDS011;10604;51.976;7.594;2023-05-19T12:57:30;4.38;;;1.80;;
20888;SDS011;10604;51.976;7.594;2023-05-19T13:00:13;5.68;;;2.25;;
20888;SDS011;10604;51.976;7.594;2023-05-19T13:05:41;3.27;;;1.90;;
20888;SDS011;10604;51.976;7.594;2023-05-19T13:08:08;4.15;;;2.00;;
20888;SDS011;10604;51.976;7.594;2023-05-19T13:10:38;4.80;;;2.00;;
20888;SDS011;10604;51.976;7.594;2023-05-19T13:13:06;6.80;;;3.28;;
20888;SDS011;10604;51.976;7.594;2023-05-19T13:15:32;3.92;;;1.88;;
20888;SDS011;10604;51.976;7.594;2023-05-19T13:18:01;3.47;;;2.00;;
20888;SDS011;10604;51.976;7.594;2023-05-19T13:20:27;3.43;;;1.93;;
20888;SDS011;10604;51.976;7.594;2023-05-19T13:22:53;6.32;;;2.30;;
20888;SDS011;10604;51.976;7.594;2023-05-19T13:25:18;6.10;;;2.20;;
20888;SDS011;10604;51.976;7.594;2023-05-19T13:27:46;5.82;;;1.90;;
20888;SDS011;10604;51.976;7.594;2023-05-19T13:30:12;8.90;;;2.25;;
20888;SDS011;10604;51.976;7.594;2023-05-19T13:32:37;4.20;;;2.28;;
20888;SDS011;10604;51.976;7.594;2023-05-19T13:35:03;5.60;;;1.93;;
20888;SDS011;10604;51.976;7.594;2023-05-19T13:37:29;4.82;;;1.98;;
20888;SDS011;10604;51.976;7.594;2023-05-19T13:39:54;3.37;;;1.90;;
20888;SDS011;10604;51.976;7.594;2023-05-19T13:42:21;3.22;;;2.00;;
20888;SDS011;10604;51.976;7.594;2023-05-19T13:44:47;4.88;;;2.00;;
20888;SDS011;10604;51.976;7.594;2023-05-19T13:47:12;6.67;;;2.30;;
20888;SDS011;10604;51.976;7.594;2023-05-19T13:49:38;3.97;;;2.10;;
20888;SDS011;10604;51.976;7.594;2023-05-19T13:52:04;5.63;;;2.28;;
20888;SDS011;10604;51.976;7.594;2023-05-19T13:54:31;3.95;;;2.10;;
20888;SDS011;10604;51.976;7.594;2023-05-19T13:56:57;4.97;;;2.10;;
20888;SDS011;10604;51.976;7.594;2023-05-19T13:59:24;3.08;;;2.00;;
20888;SDS011;10604;51.976;7.594;2023-05-19T14:01:50;3.10;;;1.90;;
20888;SDS011;10604;51.976;7.594;2023-05-19T14:04:16;4.80;;;2.10;;
20888;SDS011;10604;51.976;7.594;2023-05-19T14:06:42;5.32;;;2.20;;
20888;SDS011;10604;51.976;7.594;2023-05-19T14:09:08;3.20;;;2.10;;
20888;SDS011;10604;51.976;7.594;2023-05-19T14:11:33;3.93;;;2.17;;
20888;SDS011;10604;51.976;7.594;2023-05-19T14:13:59;3.17;;;1.90;;
20888;SDS011;10604;51.976;7.594;2023-05-19T14:16:24;4.10;;;2.00;;
20888;SDS011;10604;51.976;7.594;2023-05-19T14:18:52;6.15;;;2.35;;
20888;SDS011;10604;51.976;7.594;2023-05-19T14:21:17;5.20;;;2.10;;
20888;SDS011;10604;51.976;7.594;2023-05-19T14:23:43;4.07;;;2.00;;
20888;SDS011;10604;51.976;7.594;2023-05-19T14:26:08;6.45;;;1.88;;
20888;SDS011;10604;51.976;7.594;2023-05-19T14:28:34;5.10;;;2.17;;
20888;SDS011;10604;51.976;7.594;2023-05-19T14:30:59;5.40;;;1.77;;
20888;SDS011;10604;51.976;7.594;2023-05-19T14:33:24;3.35;;;1.90;;
20888;SDS011;10604;51.976;7.594;2023-05-19T14:35:50;3.10;;;1.73;;
20888;SDS011;10604;51.976;7.594;2023-05-19T14:38:16;2.85;;;1.77;;
20888;SDS011;10604;51.976;7.594;2023-05-19T14:40:42;2.83;;;1.80;;
20888;SDS011;10604;51.976;7.594;2023-05-19T14:43:08;4.65;;;1.67;;
20888;SDS011;10604;51.976;7.594;2023-05-19T14:45:34;3.20;;;1.77;;
20888;SDS011;10604;51.976;7.594;2023-05-19T14:47:59;5.82;;;1.80;;
20888;SDS011;10604;51.976;7.594;2023-05-19T14:50:26;3.57;;;1.80;;
20888;SDS011;10604;51.976;7.594;2023-05-19T14:52:52;3.53;;;1.90;;
20888;SDS011;10604;51.976;7.594;2023-05-19T14:55:17;2.83;;;1.63;;
20888;SDS011;10604;51.976;7.594;2023-05-19T14:57:43;3.73;;;1.60;;
20888;SDS011;10604;51.976;7.594;2023-05-19T15:00:08;6.35;;;1.83;;
20888;SDS011;10604;51.976;7.594;2023-05-19T15:02:34;3.23;;;1.70;;
20888;SDS011;10604;51.976;7.594;2023-05-19T15:05:00;3.20;;;1.90;;
20888;SDS011;10604;51.976;7.594;2023-05-19T15:07:26;4.13;;;1.92;;
20888;SDS011;10604;51.976;7.594;2023-05-19T15:09:51;3.57;;;2.43;;
20888;SDS011;10604;51.976;7.594;2023-05-19T15:12:17;4.22;;;1.90;;
20888;SDS011;10604;51.976;7.594;2023-05-19T15:14:42;3.60;;;1.70;;
20888;SDS011;10604;51.976;7.594;2023-05-19T15:17:08;3.73;;;1.83;;
20888;SDS011;10604;51.976;7.594;2023-05-19T15:19:33;3.70;;;1.65;;
20888;SDS011;10604;51.976;7.594;2023-05-19T15:21:58;3.83;;;1.90;;
20888;SDS011;10604;51.976;7.594;2023-05-19T15:24:24;3.70;;;1.70;;